Diamond Island, Maine
Current Conditions -  °F | °C
As of 8:51 AM on Saturday 20 Dec 2014 (Local Time) from KPWM Reporting Station
Broken Clouds Broken Clouds  
Wind Chill: 18°   Ceiling: 1600
Heat Index: 27°   Visibility: 10mi
Dew Point: 17°   Wind: 9mph
Humidity: 66%   Direction: 30°NNE
Pressure: 30.33"   Gusts: NA
Location:  43.6801°N, 70.1969°W
Report Text: KPWM 201351Z 03008KT 10SM BKN016 M03/M08 A3033 RMK AO2 SLP270 T10281083
Loading
Personal Weather Stations






























Interactive Weather Map New forecast layout! Learn more

10-Day Weather Forecast

Advertisements
Track Severe Weather on mobile